sensor_id;sensor_type;location;lat;lon;timestamp;pressure;altitude;pressure_sealevel;temperature;humidity
5413;BME280;2729;50.056;8.678;2023-05-10T00:02:07;99532.41;;;16.22;100.00
5413;BME280;2729;50.056;8.678;2023-05-10T00:04:33;99527.59;;;16.15;100.00
5413;BME280;2729;50.056;8.678;2023-05-10T00:06:59;99527.28;;;15.91;100.00
5413;BME280;2729;50.056;8.678;2023-05-10T00:09:26;99533.09;;;15.82;100.00
5413;BME280;2729;50.056;8.678;2023-05-10T00:11:51;99535.16;;;15.91;100.00
5413;BME280;2729;50.056;8.678;2023-05-10T00:14:17;99532.84;;;16.00;100.00
5413;BME280;2729;50.056;8.678;2023-05-10T00:16:44;99537.81;;;15.91;100.00
5413;BME280;2729;50.056;8.678;2023-05-10T00:19:09;99537.94;;;15.73;100.00
5413;BME280;2729;50.056;8.678;2023-05-10T00:21:36;99533.94;;;15.82;100.00
5413;BME280;2729;50.056;8.678;2023-05-10T00:24:02;99542.25;;;16.04;100.00
5413;BME280;2729;50.056;8.678;2023-05-10T00:26:28;99537.41;;;15.83;100.00
5413;BME280;2729;50.056;8.678;2023-05-10T00:28:55;99538.56;;;15.93;100.00
5413;BME280;2729;50.056;8.678;2023-05-10T00:31:22;99535.66;;;15.67;100.00
5413;BME280;2729;50.056;8.678;2023-05-10T00:33:48;99541.41;;;15.74;100.00
5413;BME280;2729;50.056;8.678;2023-05-10T00:36:14;99542.69;;;15.51;100.00
5413;BME280;2729;50.056;8.678;2023-05-10T00:38:40;99536.47;;;15.84;100.00
5413;BME280;2729;50.056;8.678;2023-05-10T00:41:06;99540.81;;;15.53;100.00
5413;BME280;2729;50.056;8.678;2023-05-10T00:43:34;99548.78;;;15.52;100.00
5413;BME280;2729;50.056;8.678;2023-05-10T00:46:00;99549.50;;;15.71;100.00
5413;BME280;2729;50.056;8.678;2023-05-10T00:48:28;99547.94;;;15.83;100.00
5413;BME280;2729;50.056;8.678;2023-05-10T00:50:55;99551.81;;;15.91;100.00
5413;BME280;2729;50.056;8.678;2023-05-10T00:53:21;99554.88;;;15.52;100.00
5413;BME280;2729;50.056;8.678;2023-05-10T00:55:47;99553.91;;;15.70;100.00
5413;BME280;2729;50.056;8.678;2023-05-10T00:58:13;99554.03;;;15.52;100.00
5413;BME280;2729;50.056;8.678;2023-05-10T01:00:41;99553.91;;;15.70;100.00
5413;BME280;2729;50.056;8.678;2023-05-10T01:03:07;99560.91;;;15.54;100.00
5413;BME280;2729;50.056;8.678;2023-05-10T01:05:33;99564.91;;;15.45;100.00
5413;BME280;2729;50.056;8.678;2023-05-10T01:07:59;99561.69;;;15.40;100.00
5413;BME280;2729;50.056;8.678;2023-05-10T01:10:25;99555.50;;;15.26;100.00
5413;BME280;2729;50.056;8.678;2023-05-10T01:12:51;99556.28;;;15.28;100.00
5413;BME280;2729;50.056;8.678;2023-05-10T01:15:17;99553.97;;;15.37;100.00
5413;BME280;2729;50.056;8.678;2023-05-10T01:17:46;99564.03;;;15.62;100.00
5413;BME280;2729;50.056;8.678;2023-05-10T01:20:14;99559.66;;;15.30;100.00
5413;BME280;2729;50.056;8.678;2023-05-10T01:25:49;99561.84;;;15.53;100.00
5413;BME280;2729;50.056;8.678;2023-05-10T01:31:29;99566.09;;;15.24;100.00
5413;BME280;2729;50.056;8.678;2023-05-10T01:34:02;99568.41;;;15.30;100.00
5413;BME280;2729;50.056;8.678;2023-05-10T01:36:36;99570.78;;;15.35;100.00
5413;BME280;2729;50.056;8.678;2023-05-10T01:41:52;99576.38;;;15.13;100.00
5413;BME280;2729;50.056;8.678;2023-05-10T01:47:03;99581.78;;;15.10;100.00
5413;BME280;2729;50.056;8.678;2023-05-10T01:49:32;99577.28;;;15.12;100.00
5413;BME280;2729;50.056;8.678;2023-05-10T01:52:08;99582.13;;;15.20;100.00
5413;BME280;2729;50.056;8.678;2023-05-10T01:54:35;99577.47;;;15.25;100.00
5413;BME280;2729;50.056;8.678;2023-05-10T01:57:06;99590.88;;;15.20;100.00
5413;BME280;2729;50.056;8.678;2023-05-10T01:59:37;99579.66;;;15.17;100.00
5413;BME280;2729;50.056;8.678;2023-05-10T02:02:08;99587.97;;;15.25;100.00
5413;BME280;2729;50.056;8.678;2023-05-10T02:04:38;99594.59;;;15.32;100.00
5413;BME280;2729;50.056;8.678;2023-05-10T02:07:06;99591.81;;;15.35;100.00
5413;BME280;2729;50.056;8.678;2023-05-10T02:09:34;99599.25;;;15.11;100.00
5413;BME280;2729;50.056;8.678;2023-05-10T02:12:02;99589.50;;;15.13;100.00
5413;BME280;2729;50.056;8.678;2023-05-10T02:14:35;99589.34;;;15.16;100.00
5413;BME280;2729;50.056;8.678;2023-05-10T02:17:05;99590.34;;;15.13;100.00
5413;BME280;2729;50.056;8.678;2023-05-10T02:19:33;99593.50;;;15.20;100.00
5413;BME280;2729;50.056;8.678;2023-05-10T02:22:00;99601.56;;;15.17;100.00
5413;BME280;2729;50.056;8.678;2023-05-10T02:24:28;99603.06;;;15.05;100.00
5413;BME280;2729;50.056;8.678;2023-05-10T02:26:54;99611.38;;;15.13;100.00
5413;BME280;2729;50.056;8.678;2023-05-10T02:29:23;99613.50;;;15.23;100.00
5413;BME280;2729;50.056;8.678;2023-05-10T02:31:54;99619.38;;;15.28;100.00
5413;BME280;2729;50.056;8.678;2023-05-10T02:34:21;99619.94;;;15.01;100.00
5413;BME280;2729;50.056;8.678;2023-05-10T02:36:48;99618.50;;;15.11;100.00
5413;BME280;2729;50.056;8.678;2023-05-10T02:39:18;99622.75;;;15.14;100.00
5413;BME280;2729;50.056;8.678;2023-05-10T02:41:46;99617.41;;;15.31;100.00
5413;BME280;2729;50.056;8.678;2023-05-10T02:44:14;99616.66;;;15.29;100.00
5413;BME280;2729;50.056;8.678;2023-05-10T02:46:41;99618.25;;;15.16;100.00
5413;BME280;2729;50.056;8.678;2023-05-10T02:49:07;99610.19;;;15.19;100.00
5413;BME280;2729;50.056;8.678;2023-05-10T02:51:36;99620.72;;;15.35;100.00
5413;BME280;2729;50.056;8.678;2023-05-10T02:54:11;99618.34;;;15.30;100.00
5413;BME280;2729;50.056;8.678;2023-05-10T02:56:42;99620.81;;;15.18;100.00
5413;BME280;2729;50.056;8.678;2023-05-10T02:59:08;99621.56;;;15.20;100.00
5413;BME280;2729;50.056;8.678;2023-05-10T03:01:34;99615.97;;;15.26;100.00
5413;BME280;2729;50.056;8.678;2023-05-10T03:04:00;99616.56;;;15.15;100.00
5413;BME280;2729;50.056;8.678;2023-05-10T03:06:26;99617.59;;;15.28;100.00
5413;BME280;2729;50.056;8.678;2023-05-10T03:08:52;99621.03;;;14.97;100.00
5413;BME280;2729;50.056;8.678;2023-05-10T03:11:47;99619.53;;;15.09;100.00
5413;BME280;2729;50.056;8.678;2023-05-10T03:17:33;99627.50;;;15.23;100.00
5413;BME280;2729;50.056;8.678;2023-05-10T03:20:09;99626.97;;;15.01;100.00
5413;BME280;2729;50.056;8.678;2023-05-10T03:22:41;99626.56;;;15.08;100.00
5413;BME280;2729;50.056;8.678;2023-05-10T03:25:10;99626.66;;;15.23;100.00
5413;BME280;2729;50.056;8.678;2023-05-10T03:27:40;99624.41;;;14.99;100.00
5413;BME280;2729;50.056;8.678;2023-05-10T03:30:08;99624.06;;;14.90;100.00
5413;BME280;2729;50.056;8.678;2023-05-10T03:32:36;99632.75;;;15.07;100.00
5413;BME280;2729;50.056;8.678;2023-05-10T03:35:10;99630.00;;;14.93;100.00
5413;BME280;2729;50.056;8.678;2023-05-10T03:37:37;99637.06;;;15.08;100.00
5413;BME280;2729;50.056;8.678;2023-05-10T03:40:04;99639.53;;;15.11;100.00
5413;BME280;2729;50.056;8.678;2023-05-10T03:42:33;99643.28;;;15.23;100.00
5413;BME280;2729;50.056;8.678;2023-05-10T03:44:59;99639.72;;;15.24;100.00
5413;BME280;2729;50.056;8.678;2023-05-10T03:47:24;99644.03;;;15.09;100.00
5413;BME280;2729;50.056;8.678;2023-05-10T03:49:51;99642.94;;;15.29;100.00
5413;BME280;2729;50.056;8.678;2023-05-10T03:52:17;99647.72;;;15.38;100.00
5413;BME280;2729;50.056;8.678;2023-05-10T03:54:44;99651.69;;;15.30;100.00
5413;BME280;2729;50.056;8.678;2023-05-10T03:57:10;99647.72;;;15.38;100.00
5413;BME280;2729;50.056;8.678;2023-05-10T03:59:36;99645.16;;;15.37;100.00
5413;BME280;2729;50.056;8.678;2023-05-10T04:02:02;99649.06;;;15.30;100.00
5413;BME280;2729;50.056;8.678;2023-05-10T04:04:29;99645.91;;;15.23;100.00
5413;BME280;2729;50.056;8.678;2023-05-10T04:06:55;99643.28;;;15.23;100.00
5413;BME280;2729;50.056;8.678;2023-05-10T04:09:21;99639.38;;;15.30;100.00
5413;BME280;2729;50.056;8.678;2023-05-10T04:11:47;99640.22;;;15.31;100.00
5413;BME280;2729;50.056;8.678;2023-05-10T04:14:13;99646.94;;;15.36;100.00
5413;BME280;2729;50.056;8.678;2023-05-10T04:16:38;99645.38;;;15.17;100.00
5413;BME280;2729;50.056;8.678;2023-05-10T04:19:04;99644.78;;;15.11;100.00
5413;BME280;2729;50.056;8.678;2023-05-10T04:21:30;99646.03;;;15.04;100.00
5413;BME280;2729;50.056;8.678;2023-05-10T04:23:56;99657.94;;;15.11;100.00
5413;BME280;2729;50.056;8.678;2023-05-10T04:26:22;99654.28;;;15.14;100.00
5413;BME280;2729;50.056;8.678;2023-05-10T04:28:48;99654.56;;;15.25;100.00
5413;BME280;2729;50.056;8.678;2023-05-10T04:31:14;99656.34;;;15.25;100.00
5413;BME280;2729;50.056;8.678;2023-05-10T04:33:40;99654.88;;;15.03;100.00
5413;BME280;2729;50.056;8.678;2023-05-10T04:36:06;99655.47;;;15.08;100.00
5413;BME280;2729;50.056;8.678;2023-05-10T04:38:32;99656.16;;;15.12;100.00
5413;BME280;2729;50.056;8.678;2023-05-10T04:41:08;99661.28;;;15.31;100.00
5413;BME280;2729;50.056;8.678;2023-05-10T04:43:35;99665.88;;;15.43;100.00
5413;BME280;2729;50.056;8.678;2023-05-10T04:46:02;99667.72;;;15.41;100.00
5413;BME280;2729;50.056;8.678;2023-05-10T04:48:28;99670.78;;;15.33;100.00
5413;BME280;2729;50.056;8.678;2023-05-10T04:50:54;99672.06;;;15.42;100.00
5413;BME280;2729;50.056;8.678;2023-05-10T04:53:20;99674.00;;;15.54;100.00
5413;BME280;2729;50.056;8.678;2023-05-10T04:55:46;99675.19;;;15.49;100.00
5413;BME280;2729;50.056;8.678;2023-05-10T04:58:12;99673.75;;;15.43;100.00
5413;BME280;2729;50.056;8.678;2023-05-10T05:00:38;99669.34;;;15.43;100.00
5413;BME280;2729;50.056;8.678;2023-05-10T05:03:04;99676.38;;;15.43;100.00
5413;BME280;2729;50.056;8.678;2023-05-10T05:05:30;99674.34;;;15.32;100.00
5413;BME280;2729;50.056;8.678;2023-05-10T05:07:56;99684.16;;;15.29;100.00
5413;BME280;2729;50.056;8.678;2023-05-10T05:10:22;99684.09;;;15.30;100.00
5413;BME280;2729;50.056;8.678;2023-05-10T05:12:48;99686.72;;;15.46;100.00
5413;BME280;2729;50.056;8.678;2023-05-10T05:15:14;99681.81;;;15.40;100.00
5413;BME280;2729;50.056;8.678;2023-05-10T05:17:43;99687.25;;;15.53;100.00
5413;BME280;2729;50.056;8.678;2023-05-10T05:20:09;99692.91;;;15.62;100.00
5413;BME280;2729;50.056;8.678;2023-05-10T05:22:36;99696.31;;;15.64;100.00
5413;BME280;2729;50.056;8.678;2023-05-10T05:25:02;99695.13;;;15.70;100.00
5413;BME280;2729;50.056;8.678;2023-05-10T05:27:29;99694.09;;;15.72;100.00
5413;BME280;2729;50.056;8.678;2023-05-10T05:29:55;99694.44;;;15.66;100.00
5413;BME280;2729;50.056;8.678;2023-05-10T05:32:22;99701.34;;;15.52;100.00
5413;BME280;2729;50.056;8.678;2023-05-10T05:34:48;99699.63;;;15.35;100.00
5413;BME280;2729;50.056;8.678;2023-05-10T05:37:15;99699.72;;;15.49;100.00
5413;BME280;2729;50.056;8.678;2023-05-10T05:39:41;99695.81;;;15.56;100.00
5413;BME280;2729;50.056;8.678;2023-05-10T05:42:09;99708.28;;;15.53;100.00
5413;BME280;2729;50.056;8.678;2023-05-10T05:44:35;99695.91;;;15.55;100.00
5413;BME280;2729;50.056;8.678;2023-05-10T05:47:01;99699.88;;;15.46;100.00
5413;BME280;2729;50.056;8.678;2023-05-10T05:49:27;99700.09;;;15.59;100.00
5413;BME280;2729;50.056;8.678;2023-05-10T05:51:52;99711.94;;;15.67;100.00
5413;BME280;2729;50.056;8.678;2023-05-10T05:54:19;99707.09;;;15.75;100.00
5413;BME280;2729;50.056;8.678;2023-05-10T05:56:44;99714.66;;;15.82;100.00
5413;BME280;2729;50.056;8.678;2023-05-10T05:59:11;99718.81;;;15.86;100.00
5413;BME280;2729;50.056;8.678;2023-05-10T06:01:37;99712.63;;;15.87;100.00
5413;BME280;2729;50.056;8.678;2023-05-10T06:04:03;99719.50;;;15.73;100.00
5413;BME280;2729;50.056;8.678;2023-05-10T06:06:29;99720.59;;;15.85;100.00
5413;BME280;2729;50.056;8.678;2023-05-10T06:08:55;99726.88;;;15.83;100.00
5413;BME280;2729;50.056;8.678;2023-05-10T06:11:21;99716.34;;;15.83;100.00
5413;BME280;2729;50.056;8.678;2023-05-10T06:13:47;99724.56;;;16.08;100.00
5413;BME280;2729;50.056;8.678;2023-05-10T06:16:13;99724.75;;;15.73;100.00
5413;BME280;2729;50.056;8.678;2023-05-10T06:18:39;99729.94;;;15.91;100.00
5413;BME280;2729;50.056;8.678;2023-05-10T06:21:05;99730.28;;;15.85;100.00
5413;BME280;2729;50.056;8.678;2023-05-10T06:23:31;99736.13;;;15.90;100.00
5413;BME280;2729;50.056;8.678;2023-05-10T06:25:57;99731.97;;;16.01;100.00
5413;BME280;2729;50.056;8.678;2023-05-10T06:28:23;99743.09;;;15.91;100.00
5413;BME280;2729;50.056;8.678;2023-05-10T06:30:49;99743.84;;;15.77;100.00
5413;BME280;2729;50.056;8.678;2023-05-10T06:33:14;99745.28;;;15.98;100.00
5413;BME280;2729;50.056;8.678;2023-05-10T06:35:41;99756.50;;;16.02;100.00
5413;BME280;2729;50.056;8.678;2023-05-10T06:38:07;99749.13;;;16.08;100.00
5413;BME280;2729;50.056;8.678;2023-05-10T06:40:33;99756.50;;;15.86;100.00
5413;BME280;2729;50.056;8.678;2023-05-10T06:42:59;99753.78;;;15.72;100.00
5413;BME280;2729;50.056;8.678;2023-05-10T06:45:25;99747.59;;;15.89;100.00
5413;BME280;2729;50.056;8.678;2023-05-10T06:47:51;99753.44;;;15.94;100.00
5413;BME280;2729;50.056;8.678;2023-05-10T06:50:17;99751.84;;;16.07;100.00
5413;BME280;2729;50.056;8.678;2023-05-10T06:52:43;99754.38;;;16.08;100.00
5413;BME280;2729;50.056;8.678;2023-05-10T06:55:10;99752.69;;;15.92;100.00
5413;BME280;2729;50.056;8.678;2023-05-10T06:57:36;99751.16;;;16.03;100.00
5413;BME280;2729;50.056;8.678;2023-05-10T07:00:02;99757.25;;;16.20;100.00
5413;BME280;2729;50.056;8.678;2023-05-10T07:02:31;99757.50;;;16.31;100.00
5413;BME280;2729;50.056;8.678;2023-05-10T07:04:57;99761.41;;;16.24;100.00
5413;BME280;2729;50.056;8.678;2023-05-10T07:07:23;99763.53;;;15.86;100.00
5413;BME280;2729;50.056;8.678;2023-05-10T07:09:49;99768.72;;;15.71;100.00
5413;BME280;2729;50.056;8.678;2023-05-10T07:12:15;99774.34;;;15.97;100.00
5413;BME280;2729;50.056;8.678;2023-05-10T07:14:41;99771.19;;;15.74;100.00
5413;BME280;2729;50.056;8.678;2023-05-10T07:17:08;99778.31;;;16.04;100.00
5413;BME280;2729;50.056;8.678;2023-05-10T07:19:33;99776.47;;;16.06;100.00
5413;BME280;2729;50.056;8.678;2023-05-10T07:21:59;99779.59;;;16.13;100.00
5413;BME280;2729;50.056;8.678;2023-05-10T07:24:25;99783.59;;;16.35;100.00
5413;BME280;2729;50.056;8.678;2023-05-10T07:26:51;99781.25;;;16.61;100.00
5413;BME280;2729;50.056;8.678;2023-05-10T07:29:17;99775.47;;;16.54;100.00
5413;BME280;2729;50.056;8.678;2023-05-10T07:31:43;99779.47;;;16.61;100.00
5413;BME280;2729;50.056;8.678;2023-05-10T07:34:09;99784.91;;;16.58;100.00
5413;BME280;2729;50.056;8.678;2023-05-10T07:36:35;99779.09;;;16.83;100.00
5413;BME280;2729;50.056;8.678;2023-05-10T07:39:01;99785.56;;;16.62;100.00
5413;BME280;2729;50.056;8.678;2023-05-10T07:41:27;99786.69;;;16.74;100.00
5413;BME280;2729;50.056;8.678;2023-05-10T07:43:53;99784.19;;;16.86;100.00
5413;BME280;2729;50.056;8.678;2023-05-10T07:46:19;99792.75;;;16.44;100.00
5413;BME280;2729;50.056;8.678;2023-05-10T07:48:45;99791.41;;;16.83;100.00
5413;BME280;2729;50.056;8.678;2023-05-10T07:51:11;99797.03;;;17.07;100.00
5413;BME280;2729;50.056;8.678;2023-05-10T07:53:37;99792.78;;;17.04;100.00
5413;BME280;2729;50.056;8.678;2023-05-10T07:56:26;99801.28;;;17.09;100.00
5413;BME280;2729;50.056;8.678;2023-05-10T07:58:55;99802.13;;;17.10;100.00
5413;BME280;2729;50.056;8.678;2023-05-10T08:01:22;99798.59;;;16.95;100.00
5413;BME280;2729;50.056;8.678;2023-05-10T08:03:49;99799.91;;;17.32;100.00
5413;BME280;2729;50.056;8.678;2023-05-10T08:06:17;99793.66;;;17.19;100.00
5413;BME280;2729;50.056;8.678;2023-05-10T08:08:43;99795.78;;;16.98;100.00
5413;BME280;2729;50.056;8.678;2023-05-10T08:11:11;99790.47;;;17.14;100.00
5413;BME280;2729;50.056;8.678;2023-05-10T08:13:37;99793.75;;;17.17;100.00
5413;BME280;2729;50.056;8.678;2023-05-10T08:16:02;99796.03;;;17.23;100.00
5413;BME280;2729;50.056;8.678;2023-05-10T08:18:28;99790.69;;;17.53;100.00
5413;BME280;2729;50.056;8.678;2023-05-10T08:20:54;99799.66;;;17.65;100.00
5413;BME280;2729;50.056;8.678;2023-05-10T08:23:20;99803.50;;;18.02;100.00
5413;BME280;2729;50.056;8.678;2023-05-10T08:25:46;99798.94;;;18.18;100.00
5413;BME280;2729;50.056;8.678;2023-05-10T08:28:12;99801.84;;;17.73;100.00
5413;BME280;2729;50.056;8.678;2023-05-10T08:30:38;99808.03;;;17.57;100.00
5413;BME280;2729;50.056;8.678;2023-05-10T08:33:04;99801.88;;;17.28;100.00
5413;BME280;2729;50.056;8.678;2023-05-10T08:35:30;99810.28;;;17.35;100.00
5413;BME280;2729;50.056;8.678;2023-05-10T08:37:57;99801.97;;;17.27;100.00
5413;BME280;2729;50.056;8.678;2023-05-10T08:40:24;99807.09;;;17.58;100.00
5413;BME280;2729;50.056;8.678;2023-05-10T08:42:55;99808.13;;;17.42;100.00
5413;BME280;2729;50.056;8.678;2023-05-10T08:45:23;99814.06;;;17.59;100.00
5413;BME280;2729;50.056;8.678;2023-05-10T08:47:51;99813.06;;;17.76;100.00
5413;BME280;2729;50.056;8.678;2023-05-10T08:50:19;99804.00;;;17.80;100.00
5413;BME280;2729;50.056;8.678;2023-05-10T08:52:47;99805.75;;;18.22;100.00
5413;BME280;2729;50.056;8.678;2023-05-10T08:55:15;99802.28;;;18.08;100.00
5413;BME280;2729;50.056;8.678;2023-05-10T08:57:41;99813.00;;;18.33;100.00
5413;BME280;2729;50.056;8.678;2023-05-10T09:00:07;99807.97;;;18.43;100.00
5413;BME280;2729;50.056;8.678;2023-05-10T09:02:35;99815.66;;;18.33;100.00
5413;BME280;2729;50.056;8.678;2023-05-10T09:05:02;99809.44;;;18.06;100.00
5413;BME280;2729;50.056;8.678;2023-05-10T09:07:30;99814.63;;;18.21;100.00
5413;BME280;2729;50.056;8.678;2023-05-10T09:09:56;99813.34;;;18.41;100.00
5413;BME280;2729;50.056;8.678;2023-05-10T09:12:23;99812.66;;;18.52;100.00
5413;BME280;2729;50.056;8.678;2023-05-10T09:14:50;99822.72;;;18.33;100.00
5413;BME280;2729;50.056;8.678;2023-05-10T09:17:18;99815.31;;;18.52;100.00
5413;BME280;2729;50.056;8.678;2023-05-10T09:19:45;99819.63;;;18.26;100.00
5413;BME280;2729;50.056;8.678;2023-05-10T09:22:11;99818.44;;;18.44;100.00
5413;BME280;2729;50.056;8.678;2023-05-10T09:24:36;99822.06;;;18.29;100.00
5413;BME280;2729;50.056;8.678;2023-05-10T09:27:07;99826.97;;;18.07;100.00
5413;BME280;2729;50.056;8.678;2023-05-10T09:29:42;99832.34;;;18.34;100.00
5413;BME280;2729;50.056;8.678;2023-05-10T09:32:08;99828.47;;;18.39;100.00
5413;BME280;2729;50.056;8.678;2023-05-10T09:34:34;99827.34;;;18.15;100.00
5413;BME280;2729;50.056;8.678;2023-05-10T09:37:02;99829.16;;;18.28;100.00
5413;BME280;2729;50.056;8.678;2023-05-10T09:39:36;99828.19;;;18.29;100.00
5413;BME280;2729;50.056;8.678;2023-05-10T09:42:05;99834.44;;;18.14;100.00
5413;BME280;2729;50.056;8.678;2023-05-10T09:44:32;99833.56;;;18.14;100.00
5413;BME280;2729;50.056;8.678;2023-05-10T09:46:59;99832.91;;;18.10;100.00
5413;BME280;2729;50.056;8.678;2023-05-10T09:49:26;99831.22;;;18.23;100.00
5413;BME280;2729;50.056;8.678;2023-05-10T09:52:03;99842.56;;;17.97;100.00
5413;BME280;2729;50.056;8.678;2023-05-10T09:54:30;99842.28;;;17.87;100.00
5413;BME280;2729;50.056;8.678;2023-05-10T09:56:56;99847.66;;;17.72;100.00
5413;BME280;2729;50.056;8.678;2023-05-10T09:59:25;99862.94;;;17.36;100.00
5413;BME280;2729;50.056;8.678;2023-05-10T10:01:52;99868.22;;;17.07;100.00
5413;BME280;2729;50.056;8.678;2023-05-10T10:04:19;99868.09;;;16.94;100.00
5413;BME280;2729;50.056;8.678;2023-05-10T10:06:46;99871.78;;;16.76;100.00
5413;BME280;2729;50.056;8.678;2023-05-10T10:09:13;99877.81;;;17.23;100.00
5413;BME280;2729;50.056;8.678;2023-05-10T10:11:39;99878.34;;;17.14;100.00
5413;BME280;2729;50.056;8.678;2023-05-10T10:14:06;99881.31;;;17.38;100.00
5413;BME280;2729;50.056;8.678;2023-05-10T10:16:32;99881.47;;;17.21;100.00
5413;BME280;2729;50.056;8.678;2023-05-10T10:18:58;99881.72;;;17.16;100.00
5413;BME280;2729;50.056;8.678;2023-05-10T10:21:24;99882.72;;;17.29;100.00
5413;BME280;2729;50.056;8.678;2023-05-10T10:23:51;99880.56;;;17.36;100.00
5413;BME280;2729;50.056;8.678;2023-05-10T10:26:18;99880.78;;;17.47;100.00
5413;BME280;2729;50.056;8.678;2023-05-10T10:28:51;99871.28;;;17.59;100.00
5413;BME280;2729;50.056;8.678;2023-05-10T10:31:32;99875.19;;;17.38;100.00
5413;BME280;2729;50.056;8.678;2023-05-10T10:34:08;99878.41;;;17.43;100.00
5413;BME280;2729;50.056;8.678;2023-05-10T10:36:47;99880.09;;;17.44;100.00
5413;BME280;2729;50.056;8.678;2023-05-10T10:39:14;99880.50;;;17.52;100.00
5413;BME280;2729;50.056;8.678;2023-05-10T10:49:26;99869.56;;;17.14;100.00
5413;BME280;2729;50.056;8.678;2023-05-10T10:55:14;99872.59;;;17.52;100.00
5413;BME280;2729;50.056;8.678;2023-05-10T11:00:19;99869.84;;;17.09;100.00
5413;BME280;2729;50.056;8.678;2023-05-10T11:02:47;99870.66;;;17.70;100.00
5413;BME280;2729;50.056;8.678;2023-05-10T11:10:37;99869.63;;;17.86;100.00
5413;BME280;2729;50.056;8.678;2023-05-10T11:13:08;99873.41;;;17.96;100.00
5413;BME280;2729;50.056;8.678;2023-05-10T11:15:36;99870.84;;;17.95;100.00
5413;BME280;2729;50.056;8.678;2023-05-10T11:18:17;99869.81;;;18.26;100.00
5413;BME280;2729;50.056;8.678;2023-05-10T11:20:50;99875.94;;;18.12;100.00
5413;BME280;2729;50.056;8.678;2023-05-10T11:23:16;99871.97;;;18.34;100.00
5413;BME280;2729;50.056;8.678;2023-05-10T11:25:45;99881.97;;;18.14;100.00
5413;BME280;2729;50.056;8.678;2023-05-10T11:28:11;99881.78;;;18.17;100.00
5413;BME280;2729;50.056;8.678;2023-05-10T11:30:39;99878.75;;;18.38;100.00
5413;BME280;2729;50.056;8.678;2023-05-10T11:33:06;99871.13;;;18.33;100.00
5413;BME280;2729;50.056;8.678;2023-05-10T11:35:39;99882.16;;;18.40;100.00
5413;BME280;2729;50.056;8.678;2023-05-10T11:38:09;99889.34;;;17.95;100.00
5413;BME280;2729;50.056;8.678;2023-05-10T11:40:36;99879.44;;;17.70;100.00
5413;BME280;2729;50.056;8.678;2023-05-10T11:43:03;99883.28;;;17.79;100.00
5413;BME280;2729;50.056;8.678;2023-05-10T11:45:33;99885.84;;;17.80;100.00
5413;BME280;2729;50.056;8.678;2023-05-10T11:47:59;99883.97;;;18.11;100.00
5413;BME280;2729;50.056;8.678;2023-05-10T11:50:26;99877.13;;;17.64;100.00
5413;BME280;2729;50.056;8.678;2023-05-10T11:52:53;99874.75;;;17.59;100.00
5413;BME280;2729;50.056;8.678;2023-05-10T11:55:19;99883.88;;;18.12;100.00
5413;BME280;2729;50.056;8.678;2023-05-10T11:57:46;99881.41;;;17.95;100.00
5413;BME280;2729;50.056;8.678;2023-05-10T12:00:13;99878.59;;;17.98;100.00
5413;BME280;2729;50.056;8.678;2023-05-10T12:02:41;99889.72;;;18.17;100.00
5413;BME280;2729;50.056;8.678;2023-05-10T12:05:08;99881.13;;;18.42;100.00
5413;BME280;2729;50.056;8.678;2023-05-10T12:07:34;99879.22;;;18.44;100.00
5413;BME280;2729;50.056;8.678;2023-05-10T12:10:11;99881.47;;;18.91;100.00
5413;BME280;2729;50.056;8.678;2023-05-10T12:12:42;99880.38;;;19.21;100.00
5413;BME280;2729;50.056;8.678;2023-05-10T12:15:23;99890.19;;;19.06;100.00
5413;BME280;2729;50.056;8.678;2023-05-10T12:17:49;99889.81;;;19.25;100.00
5413;BME280;2729;50.056;8.678;2023-05-10T12:20:20;99880.59;;;19.57;100.00
5413;BME280;2729;50.056;8.678;2023-05-10T12:22:52;99884.97;;;19.44;100.00
5413;BME280;2729;50.056;8.678;2023-05-10T12:25:19;99878.44;;;20.01;100.00
5413;BME280;2729;50.056;8.678;2023-05-10T12:27:53;99875.81;;;19.88;100.00
5413;BME280;2729;50.056;8.678;2023-05-10T12:30:24;99870.94;;;19.82;100.00
5413;BME280;2729;50.056;8.678;2023-05-10T12:32:51;99874.31;;;19.97;100.00
5413;BME280;2729;50.056;8.678;2023-05-10T12:35:17;99877.69;;;20.11;100.00
5413;BME280;2729;50.056;8.678;2023-05-10T12:37:47;99873.06;;;19.89;100.00
5413;BME280;2729;50.056;8.678;2023-05-10T12:40:13;99864.34;;;20.62;100.00
5413;BME280;2729;50.056;8.678;2023-05-10T12:42:40;99869.56;;;20.51;100.00
5413;BME280;2729;50.056;8.678;2023-05-10T12:45:06;99869.59;;;20.38;100.00
5413;BME280;2729;50.056;8.678;2023-05-10T12:47:33;99869.06;;;20.46;100.00
5413;BME280;2729;50.056;8.678;2023-05-10T12:50:00;99864.50;;;20.84;100.00
5413;BME280;2729;50.056;8.678;2023-05-10T12:52:27;99870.41;;;20.51;100.00
5413;BME280;2729;50.056;8.678;2023-05-10T12:54:53;99863.63;;;20.84;100.00
5413;BME280;2729;50.056;8.678;2023-05-10T12:57:22;99868.28;;;20.57;100.00
5413;BME280;2729;50.056;8.678;2023-05-10T12:59:48;99866.69;;;20.54;100.00
5413;BME280;2729;50.056;8.678;2023-05-10T13:02:15;99866.75;;;20.41;100.00
5413;BME280;2729;50.056;8.678;2023-05-10T13:04:41;99865.88;;;20.77;100.00
5413;BME280;2729;50.056;8.678;2023-05-10T13:07:07;99877.31;;;20.54;100.00
5413;BME280;2729;50.056;8.678;2023-05-10T13:09:34;99874.75;;;19.78;98.95
5413;BME280;2729;50.056;8.678;2023-05-10T13:12:00;99875.34;;;20.19;95.62
5413;BME280;2729;50.056;8.678;2023-05-10T13:14:26;99870.53;;;20.37;100.00
5413;BME280;2729;50.056;8.678;2023-05-10T13:16:52;99872.34;;;20.37;100.00
5413;BME280;2729;50.056;8.678;2023-05-10T13:19:19;99877.03;;;20.20;100.00
5413;BME280;2729;50.056;8.678;2023-05-10T13:21:45;99872.22;;;19.89;100.00
5413;BME280;2729;50.056;8.678;2023-05-10T13:24:11;99883.56;;;19.78;100.00
5413;BME280;2729;50.056;8.678;2023-05-10T13:26:41;99876.31;;;20.06;100.00
5413;BME280;2729;50.056;8.678;2023-05-10T13:29:07;99879.78;;;20.32;100.00
5413;BME280;2729;50.056;8.678;2023-05-10T13:31:34;99878.41;;;20.75;100.00
5413;BME280;2729;50.056;8.678;2023-05-10T13:34:00;99867.91;;;20.98;100.00
5413;BME280;2729;50.056;8.678;2023-05-10T13:36:26;99875.66;;;21.25;96.78
5413;BME280;2729;50.056;8.678;2023-05-10T13:38:52;99877.88;;;21.42;87.23
5413;BME280;2729;50.056;8.678;2023-05-10T13:41:18;99873.63;;;20.80;83.73
5413;BME280;2729;50.056;8.678;2023-05-10T13:43:44;99882.84;;;20.88;73.73
5413;BME280;2729;50.056;8.678;2023-05-10T13:46:10;99873.22;;;20.98;81.32
5413;BME280;2729;50.056;8.678;2023-05-10T13:48:36;99880.00;;;21.02;79.40